Time;durP1;ratioP1;P1;durP2;ratioP2;P2;SDS_P1;SDS_P2;PMS_P1;PMS_P2;Temp;Humidity;BMP_temperature;BMP_pressure;BME280_temperature;BME280_humidity;BME280_pressure;Samples;Min_cycle;Max_cycle;Signal;HPM_P1;HPM_P2
2021/08/31 00:01:48;;;;;;;19.80;13.48;;;15.30;88.50;;;;;;5156453;27;20097;-37
2021/08/31 00:04:14;;;;;;;17.40;12.32;;;15.40;88.50;;;;;;5156335;27;20035;-37
2021/08/31 00:06:40;;;;;;;17.55;14.65;;;15.30;88.50;;;;;;5155207;27;20411;-37
2021/08/31 00:09:05;;;;;;;22.25;14.30;;;15.30;88.70;;;;;;5156304;27;20023;-37
2021/08/31 00:11:31;;;;;;;18.88;13.63;;;15.30;88.50;;;;;;5156221;27;20027;-38
2021/08/31 00:13:57;;;;;;;19.13;14.18;;;15.30;88.50;;;;;;5156538;27;20438;-37
2021/08/31 00:16:23;;;;;;;21.05;14.63;;;15.30;88.50;;;;;;5156101;27;20046;-37
2021/08/31 00:18:49;;;;;;;21.42;14.55;;;15.30;88.80;;;;;;5155933;27;20019;-37
2021/08/31 00:21:15;;;;;;;22.25;15.50;;;15.30;88.70;;;;;;5155973;27;20026;-37
2021/08/31 00:23:40;;;;;;;20.13;14.88;;;15.30;89.10;;;;;;5156234;27;20101;-37
2021/08/31 00:26:06;;;;;;;17.73;14.57;;;15.20;89.10;;;;;;5156459;27;20054;-37
2021/08/31 00:28:32;;;;;;;20.80;15.10;;;15.20;89.30;;;;;;5156413;27;20109;-37
2021/08/31 00:30:57;;;;;;;18.77;13.77;;;15.30;89.10;;;;;;5137103;27;20022;-36
2021/08/31 00:33:23;;;;;;;27.58;15.68;;;15.20;89.30;;;;;;5155632;27;20027;-36
2021/08/31 00:35:48;;;;;;;23.83;13.93;;;15.20;89.30;;;;;;5155448;27;20049;-36
2021/08/31 00:38:14;;;;;;;23.17;14.07;;;15.30;89.30;;;;;;5155495;27;20019;-36
2021/08/31 00:40:40;;;;;;;27.83;15.02;;;15.20;89.20;;;;;;5155534;27;20023;-37
2021/08/31 00:43:06;;;;;;;26.40;15.93;;;15.20;89.40;;;;;;5155885;27;20029;-36
2021/08/31 00:45:35;;;;;;;25.20;15.98;;;15.10;89.60;;;;;;5155349;27;20026;-37
2021/08/31 00:48:02;;;;;;;20.83;15.70;;;15.10;89.70;;;;;;5155597;27;20019;-37
2021/08/31 00:50:28;;;;;;;24.33;15.30;;;15.10;89.70;;;;;;5155527;27;20109;-37
2021/08/31 00:52:54;;;;;;;18.50;14.35;;;15.10;89.60;;;;;;5155095;27;20074;-37
2021/08/31 00:55:19;;;;;;;20.85;16.45;;;15.00;89.70;;;;;;5136681;27;20018;-37
2021/08/31 00:57:45;;;;;;;21.08;15.63;;;14.90;90.00;;;;;;5155557;27;20038;-37
2021/08/31 01:00:14;;;;;;;23.25;15.10;;;14.90;90.00;;;;;;5155036;27;20051;-37
2021/08/31 01:02:41;;;;;;;22.20;14.95;;;14.90;90.00;;;;;;5154808;27;20019;-37
2021/08/31 01:05:08;;;;;;;22.20;15.23;;;14.90;89.90;;;;;;5154888;27;20025;-37
2021/08/31 01:07:34;;;;;;;22.67;15.95;;;14.90;90.00;;;;;;5136119;27;20056;-36
2021/08/31 01:10:01;;;;;;;27.38;16.58;;;14.90;90.20;;;;;;5155037;27;20463;-37
2021/08/31 01:12:27;;;;;;;25.20;16.08;;;15.00;90.00;;;;;;5154737;27;20113;-37
2021/08/31 01:14:54;;;;;;;25.17;16.83;;;15.10;89.90;;;;;;5154911;27;20432;-37
2021/08/31 01:17:28;;;;;;;18.45;14.15;;;15.10;89.90;;;;;;5154241;27;20019;-36
2021/08/31 01:19:55;;;;;;;21.73;14.88;;;15.00;90.00;;;;;;5154731;27;20484;-36
2021/08/31 01:22:21;;;;;;;24.75;15.70;;;15.10;90.00;;;;;;5154589;27;20146;-36
2021/08/31 01:24:52;;;;;;;24.13;15.95;;;15.10;89.90;;;;;;5154689;27;20050;-36
2021/08/31 01:27:18;;;;;;;23.55;16.05;;;15.20;89.80;;;;;;5154690;27;20082;-36
2021/08/31 01:29:44;;;;;;;23.63;15.98;;;15.10;90.00;;;;;;5154563;27;20053;-36
2021/08/31 01:32:10;;;;;;;22.30;16.05;;;15.20;89.90;;;;;;5154503;27;20027;-36
2021/08/31 01:34:35;;;;;;;27.88;15.68;;;15.20;89.60;;;;;;5154833;27;20023;-36
2021/08/31 01:37:01;;;;;;;24.65;16.05;;;15.20;89.90;;;;;;5135882;27;20025;-36
2021/08/31 01:39:27;;;;;;;21.00;16.45;;;15.20;89.80;;;;;;5154535;27;20079;-36
2021/08/31 01:41:53;;;;;;;25.02;15.98;;;15.30;89.90;;;;;;5154787;27;20022;-36
2021/08/31 01:44:19;;;;;;;23.13;16.23;;;15.20;89.90;;;;;;5154602;27;20431;-36
2021/08/31 01:46:44;;;;;;;23.35;16.48;;;15.30;90.00;;;;;;5154820;27;20026;-36
2021/08/31 01:49:10;;;;;;;25.88;18.75;;;15.10;90.10;;;;;;5154502;27;20526;-37
2021/08/31 01:51:35;;;;;;;26.25;16.52;;;15.20;90.10;;;;;;5154416;27;20034;-36
2021/08/31 01:54:01;;;;;;;27.67;15.85;;;15.10;90.40;;;;;;5154410;27;20402;-37
2021/08/31 01:56:27;;;;;;;26.73;17.55;;;15.10;90.50;;;;;;5154252;27;20496;-38
2021/08/31 01:58:52;;;;;;;22.42;16.27;;;15.10;90.40;;;;;;5154407;27;20482;-37
2021/08/31 02:01:18;;;;;;;23.35;16.77;;;15.10;90.50;;;;;;5154348;27;20019;-37
2021/08/31 02:03:44;;;;;;;26.05;16.63;;;15.00;90.70;;;;;;5154737;27;20047;-38
2021/08/31 02:06:09;;;;;;;21.42;15.57;;;15.00;91.00;;;;;;5154361;27;20027;-37
2021/08/31 02:08:35;;;;;;;24.77;17.27;;;14.90;90.80;;;;;;5135720;27;20050;-38
2021/08/31 02:11:00;;;;;;;27.20;16.35;;;14.90;91.00;;;;;;5154214;27;20074;-36
2021/08/31 02:13:26;;;;;;;23.00;15.93;;;14.80;91.00;;;;;;5135549;27;20019;-36
2021/08/31 02:15:51;;;;;;;24.73;15.90;;;14.80;91.10;;;;;;5154441;27;20518;-37
2021/08/31 02:18:17;;;;;;;25.48;17.63;;;14.80;91.10;;;;;;5154640;27;20084;-38
2021/08/31 02:20:43;;;;;;;28.02;18.50;;;14.70;91.50;;;;;;5135714;27;20023;-37
2021/08/31 02:23:09;;;;;;;27.23;15.88;;;14.60;91.80;;;;;;5154483;27;20033;-37
2021/08/31 02:25:34;;;;;;;29.95;18.45;;;14.70;91.90;;;;;;5154119;27;20420;-37
2021/08/31 02:28:00;;;;;;;29.88;19.20;;;14.70;91.60;;;;;;5154130;27;20019;-37
2021/08/31 02:30:26;;;;;;;28.70;19.50;;;14.70;91.70;;;;;;5157879;27;20395;-37
2021/08/31 02:32:52;;;;;;;30.42;19.75;;;14.60;91.90;;;;;;5158242;27;20031;-37
2021/08/31 02:35:18;;;;;;;29.55;18.13;;;14.60;91.90;;;;;;5158176;27;20535;-37
2021/08/31 02:37:43;;;;;;;33.28;19.63;;;14.60;92.00;;;;;;5157966;27;20041;-37
2021/08/31 02:40:10;;;;;;;30.60;21.20;;;14.50;92.10;;;;;;5157975;27;20040;-37
2021/08/31 02:42:36;;;;;;;29.33;20.05;;;14.60;92.10;;;;;;5158081;27;20023;-38
2021/08/31 02:45:03;;;;;;;36.17;21.10;;;14.50;91.80;;;;;;5157846;27;20015;-37
2021/08/31 02:47:29;;;;;;;30.10;19.08;;;14.50;92.20;;;;;;5157825;27;20501;-36
2021/08/31 02:49:55;;;;;;;32.45;20.40;;;14.50;92.20;;;;;;5157725;27;20038;-37
2021/08/31 02:52:20;;;;;;;32.95;19.85;;;14.50;92.40;;;;;;5157706;27;20114;-36
2021/08/31 02:54:46;;;;;;;35.17;20.65;;;14.40;92.40;;;;;;5118648;27;20050;-37
2021/08/31 02:57:11;;;;;;;31.33;20.30;;;14.40;92.20;;;;;;5118370;27;20027;-37
2021/08/31 02:59:37;;;;;;;32.05;20.95;;;14.50;92.10;;;;;;5137048;27;20569;-37
2021/08/31 03:02:06;;;;;;;28.70;20.05;;;14.50;91.90;;;;;;5136940;27;20055;-37
2021/08/31 03:04:35;;;;;;;31.73;21.17;;;14.30;92.10;;;;;;5118329;27;20416;-37
2021/08/31 03:07:02;;;;;;;31.25;21.45;;;14.30;92.40;;;;;;5137243;27;20037;-37
2021/08/31 03:09:28;;;;;;;38.90;23.23;;;14.30;92.20;;;;;;5136623;27;20072;-36
2021/08/31 03:11:54;;;;;;;32.40;22.23;;;14.30;92.40;;;;;;5136975;27;20034;-37
2021/08/31 03:14:21;;;;;;;29.55;20.70;;;14.20;92.40;;;;;;5136452;27;20091;-37
2021/08/31 03:16:47;;;;;;;31.05;20.85;;;14.20;92.60;;;;;;5136245;27;20033;-36
2021/08/31 03:19:14;;;;;;;37.22;24.35;;;14.30;92.70;;;;;;5136826;27;20102;-37
2021/08/31 03:21:39;;;;;;;37.95;23.30;;;14.30;91.90;;;;;;5136366;27;20023;-37
2021/08/31 03:24:05;;;;;;;37.78;23.50;;;14.20;92.00;;;;;;5136570;27;20490;-37
2021/08/31 03:26:31;;;;;;;39.83;23.55;;;14.20;92.20;;;;;;5136500;27;20126;-37
2021/08/31 03:28:56;;;;;;;38.17;24.77;;;14.20;92.30;;;;;;5136740;27;20035;-37
2021/08/31 03:31:22;;;;;;;36.88;25.20;;;14.30;92.30;;;;;;5136542;27;20494;-38
2021/08/31 03:33:48;;;;;;;32.80;24.13;;;14.20;92.20;;;;;;5136214;27;20031;-37
2021/08/31 03:36:13;;;;;;;36.13;22.98;;;14.20;92.30;;;;;;5136060;27;20072;-38
2021/08/31 03:38:39;;;;;;;38.60;25.27;;;14.10;92.40;;;;;;5136505;27;20043;-38
2021/08/31 03:41:05;;;;;;;38.28;25.05;;;14.20;92.30;;;;;;5136145;27;20355;-37
2021/08/31 03:43:30;;;;;;;39.63;25.23;;;14.20;92.40;;;;;;5117724;27;20063;-37
2021/08/31 03:45:56;;;;;;;34.30;24.88;;;14.20;92.40;;;;;;5135898;27;20423;-36
2021/08/31 03:48:21;;;;;;;38.42;26.17;;;14.20;92.30;;;;;;5117380;27;20106;-36
2021/08/31 03:50:47;;;;;;;35.30;24.00;;;14.20;91.90;;;;;;5117278;27;20030;-36
2021/08/31 03:53:13;;;;;;;36.47;23.13;;;14.20;91.90;;;;;;5120761;27;20479;-37
2021/08/31 03:55:38;;;;;;;33.65;23.50;;;14.10;92.10;;;;;;5135569;27;20035;-37
2021/08/31 03:58:06;;;;;;;37.00;23.45;;;14.00;92.40;;;;;;5134319;27;20490;-37
2021/08/31 04:00:34;;;;;;;42.20;26.90;;;13.90;92.80;;;;;;5135876;27;20098;-46
2021/08/31 04:02:59;;;;;;;36.63;24.38;;;13.80;92.70;;;;;;5135986;27;20019;-38
2021/08/31 04:05:25;;;;;;;34.17;24.70;;;13.80;92.70;;;;;;5135890;27;20034;-37
2021/08/31 04:07:51;;;;;;;35.60;24.70;;;13.70;93.00;;;;;;5135563;27;20075;-38
2021/08/31 04:10:16;;;;;;;34.72;24.27;;;13.70;93.10;;;;;;5135970;27;20105;-38
2021/08/31 04:12:42;;;;;;;35.30;23.55;;;13.50;93.30;;;;;;5135659;27;20030;-38
2021/08/31 04:15:08;;;;;;;44.42;27.15;;;13.50;93.50;;;;;;5135377;27;20019;-36
2021/08/31 04:17:34;;;;;;;46.15;29.10;;;13.60;93.70;;;;;;5135358;27;20050;-37
2021/08/31 04:19:59;;;;;;;56.20;28.70;;;13.50;93.70;;;;;;5135316;27;20073;-37
2021/08/31 04:22:25;;;;;;;58.35;30.70;;;13.60;93.90;;;;;;5133886;27;20027;-37
2021/08/31 04:24:50;;;;;;;73.72;32.08;;;13.80;94.00;;;;;;5135231;27;20023;-37
2021/08/31 04:27:16;;;;;;;69.57;34.33;;;13.80;93.40;;;;;;5135219;27;20397;-37
2021/08/31 04:29:42;;;;;;;63.53;33.72;;;13.80;93.20;;;;;;5135218;27;20023;-37
2021/08/31 04:32:07;;;;;;;98.43;36.15;;;13.90;93.20;;;;;;5135103;27;20038;-37
2021/08/31 04:34:33;;;;;;;78.22;38.92;;;13.90;93.00;;;;;;5135290;27;20049;-36
2021/08/31 04:36:59;;;;;;;88.35;39.17;;;13.90;93.10;;;;;;5135115;27;20052;-36
2021/08/31 04:39:24;;;;;;;82.82;40.60;;;13.90;93.00;;;;;;5134853;27;20019;-37
2021/08/31 04:41:50;;;;;;;119.25;43.03;;;14.00;93.20;;;;;;5135105;27;20019;-37
2021/08/31 04:44:16;;;;;;;96.40;41.38;;;14.10;93.30;;;;;;5135077;27;20019;-36
2021/08/31 04:46:42;;;;;;;105.65;44.78;;;14.10;93.00;;;;;;5135020;27;20019;-37
2021/08/31 04:49:07;;;;;;;95.18;43.83;;;14.20;92.90;;;;;;5134946;27;20031;-37
2021/08/31 04:51:33;;;;;;;105.20;43.80;;;14.20;92.70;;;;;;5134293;27;20486;-37
2021/08/31 04:53:59;;;;;;;85.97;41.08;;;14.30;92.90;;;;;;5134489;27;20039;-38
2021/08/31 04:56:25;;;;;;;85.00;42.08;;;14.30;92.50;;;;;;5134483;27;20482;-37
2021/08/31 04:58:51;;;;;;;79.93;39.65;;;14.30;92.70;;;;;;5134810;27;20075;-36
2021/08/31 05:01:16;;;;;;;68.03;36.83;;;14.30;92.70;;;;;;5134830;27;20490;-37
2021/08/31 05:03:43;;;;;;;66.75;35.83;;;14.20;92.80;;;;;;5133208;27;20098;-36
2021/08/31 05:06:09;;;;;;;69.38;39.70;;;14.10;93.20;;;;;;5134437;27;20100;-36
2021/08/31 05:08:35;;;;;;;71.82;38.55;;;14.20;93.30;;;;;;5134689;27;20107;-38
2021/08/31 05:11:01;;;;;;;70.47;37.67;;;14.30;93.00;;;;;;5134293;27;20030;-36
2021/08/31 05:13:27;;;;;;;65.72;37.55;;;14.40;92.80;;;;;;5134157;27;20035;-37
2021/08/31 05:15:53;;;;;;;72.72;36.55;;;14.40;92.70;;;;;;5134164;27;20073;-37
2021/08/31 05:18:19;;;;;;;65.22;35.63;;;14.50;92.40;;;;;;5134086;27;20120;-37
2021/08/31 05:20:44;;;;;;;78.72;39.60;;;14.40;92.30;;;;;;5134027;27;20377;-37
2021/08/31 05:23:10;;;;;;;79.88;40.90;;;14.60;92.60;;;;;;5134032;27;20120;-36
2021/08/31 05:25:37;;;;;;;80.25;39.70;;;14.70;92.30;;;;;;5134013;27;20023;-37
2021/08/31 05:28:03;;;;;;;71.85;39.65;;;14.70;91.80;;;;;;5133894;27;20015;-37
2021/08/31 05:30:29;;;;;;;78.40;39.55;;;14.70;91.80;;;;;;5133973;27;20068;-38
2021/08/31 05:32:54;;;;;;;64.53;36.75;;;14.70;91.40;;;;;;5115483;27;20019;-37
2021/08/31 05:35:20;;;;;;;67.85;36.38;;;14.70;91.70;;;;;;5134637;27;20099;-38
2021/08/31 05:37:45;;;;;;;63.50;34.22;;;14.80;91.70;;;;;;5133826;27;20378;-36
2021/08/31 05:40:11;;;;;;;59.90;34.15;;;14.60;91.60;;;;;;5132914;27;20023;-37
2021/08/31 05:42:37;;;;;;;55.15;33.30;;;14.60;92.30;;;;;;5133766;27;20054;-37
2021/08/31 05:45:03;;;;;;;48.47;30.48;;;14.70;92.30;;;;;;5133852;27;20048;-38
2021/08/31 05:47:29;;;;;;;47.90;29.88;;;14.70;92.30;;;;;;5133679;27;20027;-37
2021/08/31 05:49:55;;;;;;;58.60;32.20;;;14.70;92.20;;;;;;5133650;27;20347;-37
2021/08/31 05:52:20;;;;;;;55.97;32.10;;;14.80;91.70;;;;;;5133716;28;20102;-37
2021/08/31 05:54:46;;;;;;;52.33;30.05;;;14.80;91.40;;;;;;5133382;28;20081;-37
2021/08/31 05:57:11;;;;;;;51.20;27.45;;;14.70;91.80;;;;;;5133545;28;20051;-37
2021/08/31 05:59:41;;;;;;;53.78;29.50;;;14.60;92.30;;;;;;5133644;28;20407;-37
2021/08/31 06:02:10;;;;;;;62.23;32.03;;;14.80;92.70;;;;;;5133522;28;20527;-37
2021/08/31 06:04:36;;;;;;;53.88;28.83;;;14.80;92.30;;;;;;5135922;27;20035;-37
2021/08/31 06:07:05;;;;;;;50.80;29.42;;;14.80;92.50;;;;;;5137553;27;20033;-38
2021/08/31 06:09:31;;;;;;;55.95;29.42;;;14.90;92.30;;;;;;5137522;27;20027;-37
2021/08/31 06:11:58;;;;;;;58.08;28.50;;;14.90;92.20;;;;;;5137680;27;20038;-36
2021/08/31 06:14:24;;;;;;;55.78;27.92;;;14.90;92.30;;;;;;5137387;27;20029;-38
2021/08/31 06:16:49;;;;;;;53.40;29.13;;;15.00;91.70;;;;;;5137506;27;20475;-36
2021/08/31 06:19:16;;;;;;;61.45;28.23;;;15.00;92.00;;;;;;5137410;27;20103;-37
2021/08/31 06:21:42;;;;;;;55.45;28.67;;;15.10;91.80;;;;;;5137168;27;20058;-37
2021/08/31 06:24:08;;;;;;;48.55;27.83;;;15.10;91.90;;;;;;5137136;27;20034;-36
2021/08/31 06:26:33;;;;;;;51.33;27.73;;;15.10;92.60;;;;;;5137309;27;20093;-38
2021/08/31 06:28:59;;;;;;;49.92;25.08;;;15.20;92.60;;;;;;5136321;27;20050;-37
2021/08/31 06:31:25;;;;;;;38.35;23.00;;;15.20;92.50;;;;;;5137193;27;20539;-38
2021/08/31 06:33:50;;;;;;;43.78;24.83;;;15.20;92.80;;;;;;5137508;27;20027;-37
2021/08/31 06:36:16;;;;;;;42.97;25.63;;;15.20;92.50;;;;;;5137074;27;20050;-38
2021/08/31 06:38:42;;;;;;;41.42;24.33;;;15.20;92.40;;;;;;5137005;27;20053;-36
2021/08/31 06:41:08;;;;;;;45.47;24.33;;;15.30;92.20;;;;;;5137026;27;20116;-36
2021/08/31 06:43:34;;;;;;;46.90;24.83;;;15.20;92.60;;;;;;5135572;27;20498;-38
2021/08/31 06:46:00;;;;;;;53.95;26.70;;;15.30;92.40;;;;;;5135365;27;20027;-37
2021/08/31 06:48:26;;;;;;;54.75;29.33;;;15.30;92.10;;;;;;5135041;27;20027;-38
2021/08/31 06:50:52;;;;;;;50.67;28.08;;;15.40;92.10;;;;;;5136962;27;20454;-36
2021/08/31 06:53:17;;;;;;;51.03;26.40;;;15.30;92.00;;;;;;5144261;27;20047;-37
2021/08/31 06:55:43;;;;;;;47.38;24.30;;;15.40;91.80;;;;;;5138512;27;20461;-37
2021/08/31 06:58:09;;;;;;;53.92;25.08;;;15.40;91.60;;;;;;5157527;27;20378;-38
2021/08/31 07:00:35;;;;;;;52.00;24.63;;;15.50;91.40;;;;;;5157302;27;20019;-46
2021/08/31 07:03:00;;;;;;;48.90;25.42;;;15.50;91.50;;;;;;5157667;27;20030;-37
2021/08/31 07:05:26;;;;;;;46.75;25.58;;;15.50;91.50;;;;;;5157469;27;20075;-38
2021/08/31 07:07:52;;;;;;;49.17;25.35;;;15.60;91.10;;;;;;5157007;27;20047;-37
2021/08/31 07:10:18;;;;;;;43.17;21.77;;;15.70;90.90;;;;;;5157102;27;20431;-39
2021/08/31 07:12:43;;;;;;;42.75;21.65;;;15.70;90.40;;;;;;5156917;27;20034;-37
2021/08/31 07:15:10;;;;;;;39.10;20.25;;;15.70;90.00;;;;;;5156635;27;20034;-37
2021/08/31 07:17:35;;;;;;;35.40;20.25;;;15.60;90.30;;;;;;5156760;27;20034;-37
2021/08/31 07:20:02;;;;;;;40.40;20.20;;;15.80;90.20;;;;;;5156714;27;20019;-38
2021/08/31 07:22:27;;;;;;;30.90;20.25;;;15.80;89.70;;;;;;5157248;27;20073;-37
2021/08/31 07:24:53;;;;;;;35.03;18.35;;;16.00;89.40;;;;;;5156933;27;20044;-37
2021/08/31 07:27:19;;;;;;;36.83;22.17;;;16.10;88.60;;;;;;5156928;27;20355;-38
2021/08/31 07:29:44;;;;;;;40.47;21.83;;;16.10;88.50;;;;;;5156825;27;20019;-37
2021/08/31 07:32:10;;;;;;;34.60;20.75;;;16.20;89.00;;;;;;5138370;27;20022;-37
2021/08/31 07:34:38;;;;;;;39.38;20.90;;;16.30;88.40;;;;;;5157194;27;20098;-38
2021/08/31 07:37:05;;;;;;;37.53;20.00;;;16.10;88.40;;;;;;5156742;27;20049;-37
2021/08/31 07:39:31;;;;;;;34.13;20.27;;;16.00;88.80;;;;;;5156524;27;20022;-37
2021/08/31 07:41:57;;;;;;;42.63;21.52;;;16.00;89.30;;;;;;5137869;27;20030;-38
2021/08/31 07:44:23;;;;;;;34.58;20.38;;;16.00;88.90;;;;;;5156355;27;20063;-37
2021/08/31 07:46:51;;;;;;;39.17;20.77;;;16.00;88.60;;;;;;5156159;27;20019;-38
2021/08/31 07:49:17;;;;;;;40.42;19.98;;;16.00;89.00;;;;;;5156116;27;20522;-39
2021/08/31 07:51:44;;;;;;;33.95;20.45;;;16.10;88.80;;;;;;5156822;27;20042;-37
2021/08/31 07:54:11;;;;;;;34.33;20.90;;;16.30;88.40;;;;;;5137499;27;20075;-37
2021/08/31 07:56:37;;;;;;;34.40;19.90;;;16.70;86.80;;;;;;5156192;27;20575;-36
2021/08/31 07:59:04;;;;;;;30.25;17.50;;;16.70;86.90;;;;;;5156387;27;20026;-38
2021/08/31 08:01:30;;;;;;;29.45;17.55;;;16.80;85.90;;;;;;5156257;27;20497;-38
2021/08/31 08:03:56;;;;;;;32.47;17.73;;;16.80;86.10;;;;;;5156250;27;20026;-37
2021/08/31 08:06:22;;;;;;;26.85;15.63;;;16.80;86.00;;;;;;5155806;27;20475;-39
2021/08/31 08:08:48;;;;;;;28.27;16.73;;;16.90;85.00;;;;;;5156461;27;20051;-38
2021/08/31 08:11:14;;;;;;;25.60;14.88;;;17.10;84.60;;;;;;5156408;27;20466;-39
2021/08/31 08:13:39;;;;;;;22.65;14.55;;;17.30;83.50;;;;;;5156020;27;20041;-37
2021/08/31 08:16:05;;;;;;;23.27;14.85;;;17.40;82.90;;;;;;5136741;27;20572;-37
2021/08/31 08:18:31;;;;;;;23.10;15.10;;;17.50;82.80;;;;;;5156027;27;20023;-37
2021/08/31 08:20:57;;;;;;;32.13;15.38;;;17.60;81.70;;;;;;5137219;27;20015;-40
2021/08/31 08:23:23;;;;;;;27.58;16.67;;;17.70;81.80;;;;;;5155936;27;20551;-39
2021/08/31 08:25:51;;;;;;;29.88;16.88;;;17.30;82.10;;;;;;5136746;27;20030;-40
2021/08/31 08:28:18;;;;;;;29.33;16.55;;;17.50;82.00;;;;;;5136480;27;20018;-38
2021/08/31 08:30:44;;;;;;;25.35;14.48;;;17.70;81.50;;;;;;5137377;27;20351;-37
2021/08/31 08:33:09;;;;;;;23.75;15.73;;;17.90;81.00;;;;;;5155505;27;20026;-38
2021/08/31 08:35:35;;;;;;;26.23;14.75;;;18.20;79.60;;;;;;5155226;27;20474;-37
2021/08/31 08:38:01;;;;;;;22.27;13.85;;;18.10;79.30;;;;;;5136919;27;20022;-38
2021/08/31 08:40:27;;;;;;;27.45;13.80;;;18.20;79.30;;;;;;5136689;27;20033;-43
2021/08/31 08:42:53;;;;;;;25.85;15.82;;;17.80;79.80;;;;;;5155490;27;20370;-38
2021/08/31 08:45:20;;;;;;;22.55;13.98;;;18.00;79.80;;;;;;5155151;27;20014;-37
2021/08/31 08:47:46;;;;;;;28.13;16.80;;;18.20;79.20;;;;;;5154960;27;20026;-37
2021/08/31 08:50:12;;;;;;;24.83;14.27;;;18.30;78.20;;;;;;5136638;27;20513;-38
2021/08/31 08:52:37;;;;;;;26.45;15.50;;;18.30;78.90;;;;;;5154672;27;20358;-48
2021/08/31 08:55:10;;;;;;;25.25;16.77;;;18.30;78.70;;;;;;5155297;27;20072;-37
2021/08/31 08:57:37;;;;;;;29.17;17.35;;;18.30;79.30;;;;;;5155249;27;20470;-37
2021/08/31 09:00:05;;;;;;;23.20;14.43;;;18.40;79.70;;;;;;5154930;27;20409;-39
2021/08/31 09:02:35;;;;;;;28.60;16.38;;;18.30;78.20;;;;;;5155366;27;20347;-37
2021/08/31 09:05:01;;;;;;;26.30;15.77;;;18.50;77.50;;;;;;5154806;27;20019;-38
2021/08/31 09:07:28;;;;;;;28.02;16.48;;;18.40;78.00;;;;;;5154741;27;20034;-37
2021/08/31 09:10:20;;;;;;;25.75;16.48;;;18.50;78.10;;;;;;5154642;27;20026;-38
2021/08/31 09:12:51;;;;;;;22.73;14.73;;;18.80;76.60;;;;;;5154773;27;20075;-37
2021/08/31 09:15:31;;;;;;;22.88;14.73;;;18.80;75.90;;;;;;5154435;27;20474;-37
2021/08/31 09:18:03;;;;;;;24.25;14.40;;;19.00;74.60;;;;;;5154259;27;20026;-37
2021/08/31 09:20:53;;;;;;;23.83;14.98;;;18.90;74.60;;;;;;5154094;27;20086;-39
2021/08/31 09:23:22;;;;;;;24.08;14.63;;;18.70;75.40;;;;;;5146292;27;20041;-38
2021/08/31 09:25:51;;;;;;;19.83;13.40;;;18.80;76.30;;;;;;5154776;27;20530;-37
2021/08/31 09:28:31;;;;;;;19.05;13.73;;;20.20;70.30;;;;;;5154408;27;20368;-38
2021/08/31 09:31:07;;;;;;;20.33;11.68;;;21.30;65.90;;;;;;5154163;27;20042;-37
2021/08/31 09:33:36;;;;;;;22.88;13.32;;;21.70;64.60;;;;;;5154237;27;20030;-37
2021/08/31 09:36:07;;;;;;;16.65;11.05;;;21.30;63.50;;;;;;5154479;27;20023;-36
2021/08/31 09:38:47;;;;;;;19.88;12.48;;;21.20;64.40;;;;;;5153863;27;20102;-37
2021/08/31 09:41:24;;;;;;;14.57;10.73;;;21.30;63.80;;;;;;5154561;27;20459;-38
2021/08/31 09:43:50;;;;;;;17.08;11.23;;;21.80;62.90;;;;;;5154337;27;20018;-37
2021/08/31 09:46:16;;;;;;;14.98;9.95;;;22.90;59.20;;;;;;5154408;27;20042;-37
2021/08/31 09:48:41;;;;;;;20.33;10.98;;;23.60;56.80;;;;;;5154232;27;20062;-38
2021/08/31 09:51:12;;;;;;;16.13;11.20;;;22.50;57.80;;;;;;5154003;27;20038;-38
2021/08/31 09:53:37;;;;;;;;;;;21.40;62.00;;;;;;5154256;27;20050;-37
2021/08/31 09:56:10;;;;;;;19.63;10.20;;;21.70;60.00;;;;;;5135260;27;19910;-40
2021/08/31 09:58:41;;;;;;;17.65;9.90;;;22.10;58.80;;;;;;5154395;27;20025;-37
2021/08/31 10:01:07;;;;;;;27.33;17.60;;;22.80;56.70;;;;;;5154015;27;20043;-37
2021/08/31 10:03:34;;;;;;;16.90;8.80;;;23.30;55.20;;;;;;5135764;27;20050;-38
2021/08/31 10:06:04;;;;;;;19.23;10.38;;;24.00;53.30;;;;;;5135747;27;20091;-40
2021/08/31 10:08:35;;;;;;;14.65;9.60;;;24.50;52.00;;;;;;5153681;27;20056;-38
2021/08/31 10:11:04;;;;;;;17.95;10.02;;;24.70;51.90;;;;;;5154116;27;20026;-37
2021/08/31 10:13:36;;;;;;;13.93;7.93;;;24.40;51.20;;;;;;5153678;27;20489;-36
2021/08/31 10:16:03;;;;;;;15.93;8.55;;;23.30;53.30;;;;;;5153956;27;20030;-38
2021/08/31 10:18:29;;;;;;;13.27;7.50;;;22.50;56.60;;;;;;5153890;27;20019;-37
2021/08/31 10:21:04;;;;;;;10.88;7.55;;;22.00;56.10;;;;;;5154024;27;20538;-37
2021/08/31 10:23:43;;;;;;;12.82;7.43;;;20.80;58.90;;;;;;5154000;27;20048;-38
2021/08/31 10:26:27;;;;;;;13.63;7.97;;;20.80;59.20;;;;;;5154156;27;20027;-37
2021/08/31 10:29:21;;;;;;;15.20;7.75;;;21.20;57.10;;;;;;5154263;27;20022;-38
2021/08/31 10:31:49;;;;;;;11.07;6.22;;;21.10;57.30;;;;;;5135462;27;20023;-38
2021/08/31 10:34:29;;;;;;;9.90;6.03;;;21.40;56.80;;;;;;5153825;27;20046;-37
2021/08/31 10:37:13;;;;;;;13.93;6.90;;;22.80;53.00;;;;;;5153607;27;20027;-37
2021/08/31 10:39:54;;;;;;;12.38;6.90;;;23.70;49.40;;;;;;5134870;27;20354;-39
2021/08/31 10:42:29;;;;;;;8.45;6.45;;;23.40;48.30;;;;;;5153895;27;20015;-37
2021/08/31 10:44:56;;;;;;;9.23;5.30;;;24.10;47.90;;;;;;5134814;27;20229;-39
2021/08/31 10:47:33;;;;;;;8.95;5.47;;;24.40;46.60;;;;;;5154174;27;20030;-38
2021/08/31 10:49:59;;;;;;;7.43;5.35;;;24.60;45.10;;;;;;5154662;27;20019;-39
2021/08/31 10:52:52;;;;;;;9.75;6.28;;;25.10;42.70;;;;;;5138199;27;20041;-39
2021/08/31 10:55:23;;;;;;;12.23;6.32;;;24.20;47.20;;;;;;5157729;27;20034;-36
2021/08/31 10:57:50;;;;;;;13.65;7.10;;;22.50;52.00;;;;;;5139016;27;20154;-37
2021/08/31 11:00:15;;;;;;;14.95;6.97;;;21.80;54.20;;;;;;5157862;27;20043;-38
2021/08/31 11:02:50;;;;;;;14.00;6.97;;;21.80;54.30;;;;;;5139221;27;20028;-39
2021/08/31 11:05:25;;;;;;;10.68;7.40;;;23.70;50.20;;;;;;5139192;27;20037;-40
2021/08/31 11:08:00;;;;;;;13.30;6.85;;;25.30;46.10;;;;;;5157806;27;20019;-38
2021/08/31 11:10:36;;;;;;;8.35;6.70;;;24.30;48.00;;;;;;5157200;27;20019;-38
2021/08/31 11:13:21;;;;;;;10.20;6.00;;;24.20;48.10;;;;;;5156818;27;20388;-40
2021/08/31 11:15:47;;;;;;;8.90;6.60;;;22.30;50.10;;;;;;5156704;27;20023;-38
2021/08/31 11:18:21;;;;;;;8.43;6.13;;;21.60;52.40;;;;;;5156881;27;20474;-38
2021/08/31 11:20:47;;;;;;;8.48;5.60;;;22.80;50.70;;;;;;5122282;27;20030;-38
2021/08/31 11:23:19;;;;;;;7.80;5.80;;;23.80;48.00;;;;;;5157105;27;20029;-40
2021/08/31 11:25:50;;;;;;;8.52;6.10;;;24.30;47.40;;;;;;5120930;27;20094;-37
2021/08/31 11:28:22;;;;;;;10.45;6.10;;;23.20;50.60;;;;;;5138107;27;20083;-38
2021/08/31 11:30:56;;;;;;;9.48;5.93;;;22.20;52.80;;;;;;5156551;27;20030;-38
2021/08/31 11:33:29;;;;;;;7.95;5.88;;;21.30;55.50;;;;;;5138080;27;20030;-42
2021/08/31 11:36:07;;;;;;;8.77;6.07;;;21.30;56.10;;;;;;5138296;27;20026;-37
2021/08/31 11:38:45;;;;;;;7.10;5.45;;;21.00;56.20;;;;;;5156426;27;20051;-38
2021/08/31 11:41:24;;;;;;;8.10;6.47;;;21.80;53.80;;;;;;5157108;27;20110;-38
2021/08/31 11:43:53;;;;;;;5.55;4.72;;;23.50;49.30;;;;;;5156446;27;20075;-36
2021/08/31 11:46:24;;;;;;;7.75;4.45;;;23.30;45.10;;;;;;5156837;27;20050;-37
2021/08/31 11:49:12;;;;;;;6.95;5.43;;;23.30;45.60;;;;;;5156402;27;20470;-38
2021/08/31 11:51:39;;;;;;;8.00;5.47;;;23.30;48.20;;;;;;5155860;27;20233;-38
2021/08/31 11:54:14;;;;;;;6.47;4.88;;;23.80;48.10;;;;;;5155839;27;20042;-37
2021/08/31 11:56:41;;;;;;;7.88;5.18;;;24.40;46.80;;;;;;5137017;27;20079;-39
2021/08/31 11:59:08;;;;;;;5.25;4.53;;;24.00;46.50;;;;;;5155771;27;20019;-38
2021/08/31 12:01:35;;;;;;;7.82;5.40;;;24.40;46.00;;;;;;5155831;27;20031;-37
2021/08/31 12:04:18;;;;;;;8.35;4.78;;;25.00;44.40;;;;;;5156293;27;20015;-38
2021/08/31 12:06:45;;;;;;;12.75;5.05;;;25.00;43.50;;;;;;5137629;27;20033;-40
2021/08/31 12:09:12;;;;;;;8.38;4.35;;;25.40;43.00;;;;;;5156655;27;20336;-38
2021/08/31 12:11:38;;;;;;;9.48;4.35;;;25.20;43.20;;;;;;5156244;27;20023;-38
2021/08/31 12:14:04;;;;;;;6.97;3.92;;;24.00;45.60;;;;;;5156290;27;20033;-38
2021/08/31 12:16:30;;;;;;;11.60;4.78;;;22.90;48.10;;;;;;5156026;27;20047;-38
2021/08/31 12:18:56;;;;;;;7.63;4.63;;;22.10;50.40;;;;;;5155605;27;20429;-38
2021/08/31 12:21:23;;;;;;;7.55;5.80;;;21.60;52.00;;;;;;5155669;27;20018;-38
2021/08/31 12:23:52;;;;;;;9.45;4.55;;;21.40;53.10;;;;;;5119797;27;20071;-37
2021/08/31 12:26:30;;;;;;;7.35;5.38;;;21.90;52.70;;;;;;5155757;27;20019;-38
2021/08/31 12:29:05;;;;;;;10.15;5.05;;;22.90;48.70;;;;;;5137034;27;20026;-38
2021/08/31 12:31:31;;;;;;;8.32;4.28;;;23.90;46.60;;;;;;5156073;27;20023;-39
2021/08/31 12:33:57;;;;;;;8.13;5.38;;;25.50;43.40;;;;;;5155563;27;20053;-38